createdAt,value
2023-03-07T00:00:18.786Z,0.83
2023-03-07T00:01:18.767Z,0.84
2023-03-07T00:02:18.777Z,0.83
2023-03-07T00:03:18.746Z,0.86
2023-03-07T00:04:18.727Z,0.86
2023-03-07T00:05:18.726Z,0.88
2023-03-07T00:06:18.696Z,0.88
2023-03-07T00:07:18.686Z,0.91
2023-03-07T00:08:18.693Z,0.88
2023-03-07T00:09:18.653Z,0.91
2023-03-07T00:10:18.667Z,0.91
2023-03-07T00:11:18.631Z,0.92
2023-03-07T00:12:18.631Z,0.94
2023-03-07T00:13:18.621Z,0.92
2023-03-07T00:14:18.603Z,0.95
2023-03-07T00:15:18.594Z,0.94
2023-03-07T00:16:18.599Z,0.96
2023-03-07T00:17:18.574Z,0.95
2023-03-07T00:18:18.563Z,0.98
2023-03-07T00:19:18.572Z,0.98
2023-03-07T00:20:18.530Z,0.99
2023-03-07T00:21:18.536Z,0.96
2023-03-07T00:22:18.498Z,0.98
2023-03-07T00:23:18.489Z,1.01
2023-03-07T00:24:18.478Z,1.01
2023-03-07T00:25:18.458Z,0.99
2023-03-07T00:26:18.468Z,1.01
2023-03-07T00:27:18.438Z,1.02
2023-03-07T00:28:18.446Z,1.04
2023-03-07T00:29:18.411Z,1.05
2023-03-07T00:30:18.442Z,1.05
2023-03-07T00:31:18.421Z,1.06
2023-03-07T00:32:18.417Z,1.06
2023-03-07T00:33:18.360Z,1.10
2023-03-07T00:34:18.345Z,1.08
2023-03-07T00:35:18.357Z,1.10
2023-03-07T00:36:18.320Z,1.13
2023-03-07T00:37:18.286Z,1.12
2023-03-07T00:38:18.303Z,1.12
2023-03-07T00:39:18.264Z,1.14
2023-03-07T00:40:18.263Z,1.16
2023-03-07T00:41:18.255Z,1.17
2023-03-07T00:42:18.235Z,1.19
2023-03-07T00:43:18.235Z,1.20
2023-03-07T00:44:18.244Z,1.22
2023-03-07T00:45:18.185Z,1.22
2023-03-07T00:46:18.175Z,1.23
2023-03-07T00:47:18.183Z,1.23
2023-03-07T00:48:18.169Z,1.23
2023-03-07T00:49:18.134Z,1.23
2023-03-07T00:50:18.145Z,1.24
2023-03-07T00:51:18.164Z,1.24
2023-03-07T00:52:18.127Z,1.26
2023-03-07T00:53:18.107Z,1.26
2023-03-07T00:54:18.085Z,1.28
2023-03-07T00:55:18.075Z,1.28
2023-03-07T00:56:18.055Z,1.31
2023-03-07T00:57:18.036Z,1.31
2023-03-07T00:58:18.056Z,1.32
2023-03-07T00:59:18.022Z,1.32
2023-03-07T01:00:17.994Z,1.34
2023-03-07T01:01:18.057Z,1.35
2023-03-07T01:02:17.985Z,1.35
2023-03-07T01:03:18.000Z,1.37
2023-03-07T01:04:17.970Z,1.37
2023-03-07T01:05:17.930Z,1.40
2023-03-07T01:06:17.948Z,1.38
2023-03-07T01:07:17.962Z,1.40
2023-03-07T01:08:17.940Z,1.42
2023-03-07T01:09:17.864Z,1.41
2023-03-07T01:10:17.879Z,1.42
2023-03-07T01:11:17.931Z,1.42
2023-03-07T01:12:17.851Z,1.44
2023-03-07T01:13:17.832Z,1.41
2023-03-07T01:14:17.819Z,1.45
2023-03-07T01:15:17.819Z,1.49
2023-03-07T01:16:17.830Z,1.49
2023-03-07T01:17:17.804Z,1.50
2023-03-07T01:18:17.797Z,1.50
2023-03-07T01:19:17.740Z,1.52
2023-03-07T01:20:17.738Z,1.52
2023-03-07T01:21:17.755Z,1.55
2023-03-07T01:22:17.759Z,1.55
2023-03-07T01:23:17.707Z,1.55
2023-03-07T01:24:17.686Z,1.56
2023-03-07T01:25:17.681Z,1.58
2023-03-07T01:26:17.660Z,1.56
2023-03-07T01:27:17.629Z,1.59
2023-03-07T01:28:17.660Z,1.60
2023-03-07T01:29:17.620Z,1.59
2023-03-07T01:30:17.638Z,1.60
2023-03-07T01:31:17.653Z,1.63
2023-03-07T01:32:17.602Z,1.63
2023-03-07T01:33:17.546Z,1.63
2023-03-07T01:34:17.555Z,1.66
2023-03-07T01:35:17.526Z,1.66
2023-03-07T01:36:17.590Z,1.68
2023-03-07T01:37:17.496Z,1.67
2023-03-07T01:38:17.499Z,1.68
2023-03-07T01:39:17.550Z,1.68
2023-03-07T01:40:17.475Z,1.68
2023-03-07T01:41:17.486Z,1.70
2023-03-07T01:42:17.456Z,1.68
2023-03-07T01:43:17.435Z,1.71
2023-03-07T01:44:17.434Z,1.73
2023-03-07T01:45:17.404Z,1.71
2023-03-07T01:46:17.472Z,1.73
2023-03-07T01:47:17.384Z,1.76
2023-03-07T01:48:17.378Z,1.76
2023-03-07T01:49:17.374Z,1.76
2023-03-07T01:50:17.343Z,1.76
2023-03-07T01:51:17.322Z,1.76
2023-03-07T01:52:17.329Z,1.77
2023-03-07T01:53:17.291Z,1.76
2023-03-07T01:54:17.318Z,1.76
2023-03-07T01:55:17.281Z,1.77
2023-03-07T01:56:17.269Z,1.80
2023-03-07T01:57:17.258Z,1.77
2023-03-07T01:58:17.233Z,1.76
2023-03-07T01:59:17.243Z,1.78
2023-03-07T02:00:17.224Z,1.78
2023-03-07T02:01:17.278Z,1.81
2023-03-07T02:02:17.217Z,1.80
2023-03-07T02:03:17.201Z,1.81
2023-03-07T02:04:17.214Z,1.81
2023-03-07T02:05:17.176Z,1.84
2023-03-07T02:06:17.181Z,1.84
2023-03-07T02:07:17.139Z,1.84
2023-03-07T02:08:17.107Z,1.85
2023-03-07T02:09:17.115Z,1.85
2023-03-07T02:10:17.086Z,1.87
2023-03-07T02:11:17.062Z,1.87
2023-03-07T02:12:17.064Z,1.85
2023-03-07T02:13:17.043Z,1.88
2023-03-07T02:14:17.068Z,1.87
2023-03-07T02:15:17.023Z,1.87
2023-03-07T02:16:17.092Z,1.88
2023-03-07T02:17:17.001Z,1.88
2023-03-07T02:18:16.981Z,1.88
2023-03-07T02:19:16.982Z,1.89
2023-03-07T02:20:16.957Z,1.89
2023-03-07T02:21:16.930Z,1.89
2023-03-07T02:22:16.927Z,1.91
2023-03-07T02:23:16.902Z,1.91
2023-03-07T02:24:16.968Z,1.89
2023-03-07T02:25:16.891Z,1.89
2023-03-07T02:26:16.880Z,1.89
2023-03-07T02:27:16.852Z,1.89
2023-03-07T02:28:16.850Z,1.91
2023-03-07T02:29:16.850Z,1.89
2023-03-07T02:30:16.823Z,1.92
2023-03-07T02:31:16.861Z,1.92
2023-03-07T02:32:16.881Z,1.92
2023-03-07T02:33:16.779Z,1.92
2023-03-07T02:34:16.791Z,1.92
2023-03-07T02:35:16.771Z,1.94
2023-03-07T02:36:16.739Z,1.94
2023-03-07T02:37:16.730Z,1.94
2023-03-07T02:38:16.720Z,1.94
2023-03-07T02:39:16.748Z,1.94
2023-03-07T02:40:16.692Z,1.95
2023-03-07T02:41:16.693Z,1.94
2023-03-07T02:42:16.668Z,1.95
2023-03-07T02:43:16.648Z,1.95
2023-03-07T02:44:16.656Z,1.95
2023-03-07T02:45:16.637Z,1.95
2023-03-07T02:46:24.157Z,1.95
2023-03-07T02:47:24.141Z,1.95
2023-03-07T02:48:16.579Z,1.97
2023-03-07T02:49:16.589Z,1.95
2023-03-07T02:50:16.556Z,1.95
2023-03-07T02:51:16.546Z,1.95
2023-03-07T02:52:16.531Z,1.97
2023-03-07T02:53:16.536Z,1.97
2023-03-07T02:54:16.530Z,1.97
2023-03-07T02:55:16.551Z,1.97
2023-03-07T02:56:16.485Z,1.99
2023-03-07T02:57:16.486Z,1.97
2023-03-07T02:58:16.458Z,1.97
2023-03-07T02:59:16.459Z,1.97
2023-03-07T03:00:16.443Z,1.95
2023-03-07T03:01:16.435Z,1.97
2023-03-07T03:02:16.410Z,1.97
2023-03-07T03:03:16.391Z,1.97
2023-03-07T03:04:16.392Z,1.97
2023-03-07T03:05:16.378Z,1.99
2023-03-07T03:06:16.353Z,1.99
2023-03-07T03:07:16.348Z,1.99
2023-03-07T03:08:16.325Z,1.99
2023-03-07T03:09:16.338Z,1.99
2023-03-07T03:10:16.316Z,1.99
2023-03-07T03:11:16.300Z,1.97
2023-03-07T03:12:16.278Z,2.00
2023-03-07T03:13:16.259Z,1.99
2023-03-07T03:14:16.268Z,1.99
2023-03-07T03:15:16.237Z,1.97
2023-03-07T03:16:16.296Z,1.99
2023-03-07T03:17:16.237Z,1.97
2023-03-07T03:18:16.197Z,1.99
2023-03-07T03:19:16.205Z,1.99
2023-03-07T03:20:16.186Z,1.99
2023-03-07T03:21:16.177Z,1.97
2023-03-07T03:22:16.166Z,1.97
2023-03-07T03:23:16.158Z,1.99
2023-03-07T03:24:16.145Z,1.99
2023-03-07T03:25:16.156Z,1.97
2023-03-07T03:26:16.107Z,1.99
2023-03-07T03:27:16.097Z,1.99
2023-03-07T03:28:16.086Z,1.97
2023-03-07T03:29:16.089Z,1.97
2023-03-07T03:30:16.049Z,1.99
2023-03-07T03:31:16.103Z,1.99
2023-03-07T03:32:16.079Z,1.99
2023-03-07T03:33:16.056Z,1.97
2023-03-07T03:34:16.014Z,1.97
2023-03-07T03:35:16.073Z,1.99
2023-03-07T03:36:15.972Z,1.99
2023-03-07T03:37:15.952Z,1.99
2023-03-07T03:38:15.922Z,1.97
2023-03-07T03:39:15.952Z,1.97
2023-03-07T03:40:15.972Z,1.97
2023-03-07T03:41:16.010Z,1.97
2023-03-07T03:42:15.899Z,1.97
2023-03-07T03:43:15.868Z,1.95
2023-03-07T03:44:15.888Z,1.95
2023-03-07T03:45:15.865Z,1.97
2023-03-07T03:46:15.866Z,1.97
2023-03-07T03:47:15.839Z,1.97
2023-03-07T03:48:15.802Z,1.97
2023-03-07T03:49:15.809Z,1.95
2023-03-07T03:50:15.822Z,1.95
2023-03-07T03:51:15.773Z,1.95
2023-03-07T03:52:15.760Z,1.97
2023-03-07T03:53:15.766Z,1.95
2023-03-07T03:54:15.738Z,1.95
2023-03-07T03:55:15.721Z,1.95
2023-03-07T03:56:15.706Z,1.95
2023-03-07T03:57:15.715Z,1.94
2023-03-07T03:58:15.676Z,1.97
2023-03-07T03:59:15.676Z,1.97
2023-03-07T04:00:15.660Z,1.95
2023-03-07T04:01:15.656Z,1.95
2023-03-07T04:02:15.732Z,1.95
2023-03-07T04:03:15.606Z,1.92
2023-03-07T04:04:15.611Z,1.95
2023-03-07T04:05:15.589Z,1.94
2023-03-07T04:06:15.564Z,1.95
2023-03-07T04:07:15.555Z,1.97
2023-03-07T04:08:15.541Z,1.95
2023-03-07T04:09:15.551Z,1.94
2023-03-07T04:10:15.519Z,1.95
2023-03-07T04:11:15.501Z,1.94
2023-03-07T04:12:15.490Z,1.94
2023-03-07T04:13:15.481Z,1.92
2023-03-07T04:14:15.473Z,1.95
2023-03-07T04:15:15.470Z,1.95
2023-03-07T04:16:15.504Z,1.95
2023-03-07T04:17:15.420Z,1.95
2023-03-07T04:18:15.424Z,1.95
2023-03-07T04:19:15.420Z,1.94
2023-03-07T04:20:15.399Z,1.95
2023-03-07T04:21:15.369Z,1.94
2023-03-07T04:22:15.357Z,1.95
2023-03-07T04:23:15.350Z,1.95
2023-03-07T04:24:15.362Z,1.95
2023-03-07T04:25:15.321Z,1.95
2023-03-07T04:26:15.308Z,1.97
2023-03-07T04:27:15.299Z,1.97
2023-03-07T04:28:15.274Z,1.97
2023-03-07T04:29:15.265Z,1.99
2023-03-07T04:30:15.287Z,1.97
2023-03-07T04:31:15.264Z,1.95
2023-03-07T04:32:15.271Z,1.95
2023-03-07T04:33:15.226Z,1.95
2023-03-07T04:34:15.194Z,1.97
2023-03-07T04:35:15.213Z,1.97
2023-03-07T04:36:15.179Z,1.95
2023-03-07T04:37:15.163Z,1.97
2023-03-07T04:38:15.146Z,1.99
2023-03-07T04:39:15.180Z,1.97
2023-03-07T04:40:15.156Z,1.97
2023-03-07T04:41:15.127Z,1.99
2023-03-07T04:42:15.098Z,1.95
2023-03-07T04:43:15.092Z,1.99
2023-03-07T04:44:15.121Z,1.97
2023-03-07T04:45:15.073Z,1.97
2023-03-07T04:46:15.082Z,1.97
2023-03-07T04:47:15.056Z,1.99
2023-03-07T04:48:15.033Z,1.97
2023-03-07T04:49:15.021Z,2.00
2023-03-07T04:50:15.015Z,2.00
2023-03-07T04:51:14.981Z,1.99
2023-03-07T04:52:14.969Z,1.99
2023-03-07T04:53:14.973Z,2.00
2023-03-07T04:54:14.946Z,1.99
2023-03-07T04:55:14.953Z,1.99
2023-03-07T04:56:14.920Z,2.00
2023-03-07T04:57:14.916Z,2.00
2023-03-07T04:58:14.901Z,1.99
2023-03-07T04:59:14.884Z,1.99
2023-03-07T05:00:14.890Z,2.00
2023-03-07T05:01:14.891Z,2.00
2023-03-07T05:02:14.871Z,2.02
2023-03-07T05:03:14.830Z,2.00
2023-03-07T05:04:14.841Z,2.02
2023-03-07T05:05:14.834Z,2.02
2023-03-07T05:06:14.780Z,2.02
2023-03-07T05:07:14.839Z,2.00
2023-03-07T05:08:14.780Z,2.02
2023-03-07T05:09:14.758Z,2.02
2023-03-07T05:10:14.749Z,2.02
2023-03-07T05:11:14.739Z,2.02
2023-03-07T05:12:14.718Z,2.04
2023-03-07T05:13:14.707Z,2.04
2023-03-07T05:14:14.696Z,2.04
2023-03-07T05:15:14.698Z,2.02
2023-03-07T05:16:14.733Z,2.04
2023-03-07T05:17:14.646Z,2.02
2023-03-07T05:18:14.651Z,2.04
2023-03-07T05:19:14.623Z,2.02
2023-03-07T05:20:14.622Z,2.06
2023-03-07T05:21:14.652Z,2.02
2023-03-07T05:22:14.574Z,2.04
2023-03-07T05:23:14.566Z,2.04
2023-03-07T05:24:14.568Z,2.04
2023-03-07T05:25:14.558Z,2.04
2023-03-07T05:26:14.525Z,2.02
2023-03-07T05:27:14.525Z,2.04
2023-03-07T05:28:14.503Z,2.06
2023-03-07T05:29:14.539Z,2.04
2023-03-07T05:30:14.492Z,2.04
2023-03-07T05:31:15.668Z,2.06
2023-03-07T05:32:14.481Z,2.06
2023-03-07T05:33:14.430Z,2.06
2023-03-07T05:34:14.422Z,2.06
2023-03-07T05:35:14.421Z,2.06
2023-03-07T05:36:14.390Z,2.06
2023-03-07T05:37:14.381Z,2.06
2023-03-07T05:38:14.370Z,2.06
2023-03-07T05:39:14.362Z,2.07
2023-03-07T05:40:14.360Z,2.08
2023-03-07T05:41:14.346Z,2.08
2023-03-07T05:42:14.330Z,2.07
2023-03-07T05:43:14.333Z,2.07
2023-03-07T05:44:14.301Z,2.08
2023-03-07T05:45:14.308Z,2.08
2023-03-07T05:46:14.303Z,2.10
2023-03-07T05:47:14.258Z,2.08
2023-03-07T05:48:14.237Z,2.10
2023-03-07T05:49:14.239Z,2.10
2023-03-07T05:50:14.230Z,2.10
2023-03-07T05:51:14.208Z,2.11
2023-03-07T05:52:14.188Z,2.10
2023-03-07T05:53:14.206Z,2.10
2023-03-07T05:54:14.168Z,2.11
2023-03-07T05:55:14.167Z,2.11
2023-03-07T05:56:14.151Z,2.13
2023-03-07T05:57:14.137Z,2.11
2023-03-07T05:58:14.110Z,2.11
2023-03-07T05:59:14.118Z,2.14
2023-03-07T06:00:14.153Z,2.13
2023-03-07T06:01:14.094Z,2.13
2023-03-07T06:02:14.141Z,2.14
2023-03-07T06:03:14.051Z,2.11
2023-03-07T06:04:14.026Z,2.13
2023-03-07T06:05:14.056Z,2.14
2023-03-07T06:06:14.016Z,2.14
2023-03-07T06:07:14.008Z,2.14
2023-03-07T06:08:13.986Z,2.14
2023-03-07T06:09:13.977Z,2.15
2023-03-07T06:10:13.966Z,2.15
2023-03-07T06:11:13.966Z,2.15
2023-03-07T06:12:13.943Z,2.17
2023-03-07T06:13:13.931Z,2.17
2023-03-07T06:14:13.923Z,2.15
2023-03-07T06:15:13.904Z,2.17
2023-03-07T06:16:13.976Z,2.18
2023-03-07T06:17:13.872Z,2.17
2023-03-07T06:18:13.844Z,2.17
2023-03-07T06:19:13.863Z,2.17
2023-03-07T06:20:13.854Z,2.17
2023-03-07T06:21:13.851Z,2.17
2023-03-07T06:22:13.808Z,2.15
2023-03-07T06:23:13.803Z,2.17
2023-03-07T06:24:13.768Z,2.17
2023-03-07T06:25:13.784Z,2.14
2023-03-07T06:26:13.782Z,2.17
2023-03-07T06:27:13.732Z,2.14
2023-03-07T06:28:13.755Z,2.14
2023-03-07T06:29:13.721Z,2.14
2023-03-07T06:31:32.128Z,2.13
2023-03-07T06:32:32.131Z,2.11
2023-03-07T06:33:32.067Z,2.11
2023-03-07T06:34:32.085Z,2.11
2023-03-07T06:35:32.223Z,2.13
2023-03-07T06:36:32.046Z,2.11
2023-03-07T06:37:32.027Z,2.13
2023-03-07T06:38:32.015Z,2.13
2023-03-07T06:39:31.996Z,2.13
2023-03-07T06:40:32.106Z,2.13
2023-03-07T06:41:32.036Z,2.14
2023-03-07T06:42:31.935Z,2.13
2023-03-07T06:43:31.954Z,2.13
2023-03-07T06:44:31.949Z,2.15
2023-03-07T06:45:31.994Z,2.14
2023-03-07T06:46:32.066Z,2.14
2023-03-07T06:47:31.864Z,2.14
2023-03-07T06:48:31.873Z,2.14
2023-03-07T06:49:31.847Z,2.15
2023-03-07T06:50:35.445Z,2.15
2023-03-07T06:51:31.817Z,2.14
2023-03-07T06:52:31.816Z,2.14
2023-03-07T06:53:31.808Z,2.14
2023-03-07T06:54:31.792Z,2.15
2023-03-07T06:55:31.786Z,2.14
2023-03-07T06:56:31.771Z,2.14
2023-03-07T06:57:31.733Z,2.15
2023-03-07T06:58:31.742Z,2.15
2023-03-07T06:59:31.722Z,2.14
2023-03-07T07:00:31.731Z,2.15
2023-03-07T07:01:31.686Z,2.15
2023-03-07T07:02:31.969Z,2.14
2023-03-07T07:03:31.682Z,2.15
2023-03-07T07:04:31.862Z,2.17
2023-03-07T07:05:31.730Z,2.15
2023-03-07T07:06:31.652Z,2.18
2023-03-07T07:07:31.680Z,2.15
2023-03-07T07:08:31.610Z,2.17
2023-03-07T07:09:31.616Z,2.18
2023-03-07T07:10:31.569Z,2.18
2023-03-07T07:11:31.786Z,2.20
2023-03-07T07:12:31.547Z,2.20
2023-03-07T07:13:31.554Z,2.20
2023-03-07T07:14:31.528Z,2.22
2023-03-07T07:15:31.509Z,2.22
2023-03-07T07:16:31.559Z,2.22
2023-03-07T07:17:31.494Z,2.24
2023-03-07T07:18:31.474Z,2.24
2023-03-07T07:19:31.468Z,2.25
2023-03-07T07:20:31.515Z,2.25
2023-03-07T07:21:31.452Z,2.28
2023-03-07T07:22:31.443Z,2.28
2023-03-07T07:23:31.396Z,2.28
2023-03-07T07:24:31.428Z,2.29
2023-03-07T07:25:31.377Z,2.31
2023-03-07T07:26:31.416Z,2.31
2023-03-07T07:27:31.393Z,2.31
2023-03-07T07:28:31.356Z,2.32
2023-03-07T07:29:31.375Z,2.33
2023-03-07T07:30:31.349Z,2.35
2023-03-07T07:31:31.444Z,2.35
2023-03-07T07:32:31.516Z,2.35
2023-03-07T07:33:31.297Z,2.35
2023-03-07T07:34:31.264Z,2.35
2023-03-07T07:35:31.362Z,2.39
2023-03-07T07:36:31.334Z,2.38
2023-03-07T07:37:31.396Z,2.42
2023-03-07T07:38:31.227Z,2.42
2023-03-07T07:39:31.242Z,2.44
2023-03-07T07:40:31.301Z,2.47
2023-03-07T07:41:31.303Z,2.49
2023-03-07T07:42:32.348Z,2.50
2023-03-07T07:43:31.165Z,2.53
2023-03-07T07:44:31.176Z,2.54
2023-03-07T07:45:31.352Z,2.56
2023-03-07T07:46:31.174Z,2.60
2023-03-07T07:47:31.175Z,2.62
2023-03-07T07:48:31.191Z,2.64
2023-03-07T07:49:31.073Z,2.65
2023-03-07T07:50:31.108Z,2.69
2023-03-07T07:51:31.131Z,2.71
2023-03-07T07:52:31.037Z,2.72
2023-03-07T07:53:31.021Z,2.74
2023-03-07T07:54:31.029Z,2.75
2023-03-07T07:55:30.993Z,2.79
2023-03-07T07:56:31.013Z,2.80
2023-03-07T07:57:30.990Z,2.82
2023-03-07T07:58:30.984Z,2.82
2023-03-07T07:59:31.021Z,2.83
2023-03-07T08:00:31.031Z,2.85
2023-03-07T08:01:30.943Z,2.86
2023-03-07T08:02:30.956Z,2.87
2023-03-07T08:03:30.978Z,2.87
2023-03-07T08:04:30.910Z,2.90
2023-03-07T08:05:30.933Z,2.90
2023-03-07T08:06:30.876Z,2.93
2023-03-07T08:07:30.888Z,2.93
2023-03-07T08:08:30.861Z,2.95
2023-03-07T08:09:30.876Z,2.95
2023-03-07T08:10:30.827Z,2.93
2023-03-07T08:11:31.204Z,2.97
2023-03-07T08:12:30.813Z,2.95
2023-03-07T08:13:30.843Z,2.98
2023-03-07T08:14:30.818Z,3.00
2023-03-07T08:15:30.795Z,3.01
2023-03-07T08:16:30.935Z,3.00
2023-03-07T08:17:30.748Z,3.01
2023-03-07T08:18:30.810Z,3.01
2023-03-07T08:19:30.760Z,3.03
2023-03-07T08:20:30.700Z,3.04
2023-03-07T08:21:30.681Z,3.05
2023-03-07T08:22:30.659Z,3.05
2023-03-07T08:23:30.686Z,3.08
2023-03-07T08:24:40.268Z,3.10
2023-03-07T08:25:31.671Z,3.10
2023-03-07T08:26:30.752Z,3.11
2023-03-07T08:27:30.661Z,3.14
2023-03-07T08:28:30.627Z,3.11
2023-03-07T08:29:30.638Z,3.13
2023-03-07T08:30:30.604Z,3.16
2023-03-07T08:31:30.661Z,3.16
2023-03-07T08:32:30.593Z,3.18
2023-03-07T08:33:30.569Z,3.18
2023-03-07T08:34:30.569Z,3.19
2023-03-07T08:35:30.650Z,3.22
2023-03-07T08:36:30.490Z,3.21
2023-03-07T08:37:30.489Z,3.21
2023-03-07T08:38:30.448Z,3.22
2023-03-07T08:39:30.566Z,3.22
2023-03-07T08:40:30.609Z,3.23
2023-03-07T08:41:30.524Z,3.23
2023-03-07T08:42:30.486Z,3.23
2023-03-07T08:43:30.387Z,3.22
2023-03-07T08:44:30.449Z,3.25
2023-03-07T08:45:30.440Z,3.26
2023-03-07T08:46:30.386Z,3.26
2023-03-07T08:47:30.376Z,3.28
2023-03-07T08:48:30.376Z,3.28
2023-03-07T08:49:30.331Z,3.31
2023-03-07T08:50:30.290Z,3.31
2023-03-07T08:51:30.407Z,3.29
2023-03-07T08:52:30.296Z,3.29
2023-03-07T08:53:30.364Z,3.32
2023-03-07T08:54:30.261Z,3.29
2023-03-07T08:55:30.228Z,3.34
2023-03-07T08:56:30.329Z,3.32
2023-03-07T08:57:30.235Z,3.32
2023-03-07T08:58:30.187Z,3.32
2023-03-07T08:59:30.368Z,3.31
2023-03-07T09:00:30.296Z,3.32
2023-03-07T09:01:30.176Z,3.29
2023-03-07T09:02:30.157Z,3.31
2023-03-07T09:03:30.143Z,3.31
2023-03-07T09:04:30.148Z,3.31
2023-03-07T09:05:30.090Z,3.31
2023-03-07T09:06:30.139Z,3.31
2023-03-07T09:07:30.083Z,3.31
2023-03-07T09:08:30.061Z,3.29
2023-03-07T09:09:30.036Z,3.31
2023-03-07T09:10:30.053Z,3.32
2023-03-07T09:11:30.039Z,3.34
2023-03-07T09:12:30.030Z,3.32
2023-03-07T09:13:30.051Z,3.36
2023-03-07T09:14:29.996Z,3.36
2023-03-07T09:15:30.240Z,3.34
2023-03-07T09:16:29.987Z,3.36
2023-03-07T09:17:29.941Z,3.36
2023-03-07T09:18:31.691Z,3.36
2023-03-07T09:19:29.910Z,3.40
2023-03-07T09:20:29.977Z,3.40
2023-03-07T09:21:29.933Z,3.40
2023-03-07T09:22:29.911Z,3.44
2023-03-07T09:23:29.862Z,3.48
2023-03-07T09:24:29.860Z,3.51
2023-03-07T09:25:29.851Z,3.51
2023-03-07T09:26:29.867Z,3.58
2023-03-07T09:27:29.849Z,3.58
2023-03-07T09:28:29.836Z,3.65
2023-03-07T09:29:29.779Z,3.68
2023-03-07T09:30:29.792Z,3.73
2023-03-07T09:31:29.913Z,3.76
2023-03-07T09:32:29.790Z,3.77
2023-03-07T09:33:37.268Z,3.81
2023-03-07T09:34:37.260Z,3.91
2023-03-07T09:35:37.286Z,3.96
2023-03-07T09:36:38.586Z,3.98
2023-03-07T09:37:38.517Z,4.13
2023-03-07T09:38:37.226Z,4.13
2023-03-07T09:39:37.182Z,4.28
2023-03-07T09:40:37.189Z,4.37
2023-03-07T09:41:29.656Z,4.37
2023-03-07T09:42:29.638Z,4.55
2023-03-07T09:43:29.598Z,4.63
2023-03-07T09:44:29.638Z,4.75
2023-03-07T09:45:29.628Z,4.75
2023-03-07T09:46:29.639Z,4.90
2023-03-07T09:47:29.559Z,5.28
2023-03-07T09:48:29.560Z,5.47
2023-03-07T09:49:29.553Z,5.44
2023-03-07T09:50:29.528Z,5.79
2023-03-07T09:51:29.575Z,5.80
2023-03-07T09:52:29.533Z,6.04
2023-03-07T09:53:29.487Z,6.02
2023-03-07T09:54:29.496Z,6.11
2023-03-07T09:55:29.469Z,6.08
2023-03-07T09:56:29.481Z,6.09
2023-03-07T09:57:29.450Z,6.07
2023-03-07T09:58:29.440Z,6.02
2023-03-07T09:59:29.428Z,5.97
2023-03-07T10:00:29.390Z,5.99
2023-03-07T10:01:29.518Z,5.90
2023-03-07T10:02:29.378Z,5.84
2023-03-07T10:03:29.381Z,5.82
2023-03-07T10:04:29.474Z,5.79
2023-03-07T10:05:36.875Z,5.79
2023-03-07T10:06:38.069Z,5.72
2023-03-07T10:07:29.308Z,5.71
2023-03-07T10:08:29.298Z,5.68
2023-03-07T10:09:29.452Z,5.69
2023-03-07T10:10:29.327Z,5.66
2023-03-07T10:11:29.332Z,5.65
2023-03-07T10:12:29.289Z,5.64
2023-03-07T10:13:29.259Z,5.61
2023-03-07T10:14:29.262Z,5.62
2023-03-07T10:15:29.292Z,5.61
2023-03-07T10:16:29.206Z,5.62
2023-03-07T10:17:29.226Z,5.59
2023-03-07T10:18:29.225Z,5.57
2023-03-07T10:19:29.162Z,5.56
2023-03-07T10:20:29.173Z,5.54
2023-03-07T10:21:29.139Z,5.53
2023-03-07T10:22:29.207Z,5.51
2023-03-07T10:23:29.112Z,5.48
2023-03-07T10:24:29.188Z,5.47
2023-03-07T10:25:29.108Z,5.47
2023-03-07T10:26:29.264Z,5.44
2023-03-07T10:27:29.162Z,5.43
2023-03-07T10:28:29.094Z,5.41
2023-03-07T10:29:29.022Z,5.38
2023-03-07T10:30:29.002Z,5.36
2023-03-07T10:31:29.105Z,5.35
2023-03-07T10:32:28.999Z,5.33
2023-03-07T10:33:28.973Z,5.30
2023-03-07T10:34:31.320Z,5.28
2023-03-07T10:35:28.939Z,5.26
2023-03-07T10:36:28.937Z,5.21
2023-03-07T10:37:29.010Z,5.18
2023-03-07T10:38:28.906Z,5.18
2023-03-07T10:39:28.903Z,5.14
2023-03-07T10:40:28.876Z,5.15
2023-03-07T10:41:28.871Z,5.11
2023-03-07T10:42:28.876Z,5.07
2023-03-07T10:43:28.847Z,5.07
2023-03-07T10:44:28.826Z,5.02
2023-03-07T10:45:28.898Z,5.02
2023-03-07T10:46:28.951Z,4.99
2023-03-07T10:47:28.917Z,4.97
2023-03-07T10:48:28.852Z,4.96
2023-03-07T10:49:28.975Z,4.93
2023-03-07T10:50:28.913Z,4.92
2023-03-07T10:51:28.743Z,4.89
2023-03-07T10:52:28.741Z,4.87
2023-03-07T10:53:28.712Z,4.87
2023-03-07T10:54:30.169Z,4.80
2023-03-07T10:55:28.701Z,4.80
2023-03-07T10:56:28.715Z,4.77
2023-03-07T10:57:28.800Z,4.74
2023-03-07T10:58:29.021Z,4.73
2023-03-07T10:59:28.709Z,4.73
2023-03-07T11:00:28.668Z,4.70
2023-03-07T11:01:28.734Z,4.68
2023-03-07T11:02:28.717Z,4.66
2023-03-07T11:03:28.779Z,4.63
2023-03-07T11:04:31.723Z,4.66
2023-03-07T11:05:28.647Z,4.62
2023-03-07T11:06:28.742Z,4.60
2023-03-07T11:07:28.689Z,4.56
2023-03-07T11:08:31.269Z,4.56
2023-03-07T11:09:31.901Z,4.55
2023-03-07T11:10:28.546Z,4.50
2023-03-07T11:11:28.532Z,4.49
2023-03-07T11:12:28.557Z,4.45
2023-03-07T11:13:28.564Z,4.48
2023-03-07T11:14:28.534Z,4.42
2023-03-07T11:15:28.579Z,4.42
2023-03-07T11:16:28.584Z,4.38
2023-03-07T11:17:29.363Z,4.37
2023-03-07T11:18:28.824Z,4.37
2023-03-07T11:19:28.473Z,4.38
2023-03-07T11:20:30.561Z,4.35
2023-03-07T11:21:29.024Z,4.34
2023-03-07T11:22:29.480Z,4.31
2023-03-07T11:23:28.408Z,4.34
2023-03-07T11:24:28.409Z,4.31
2023-03-07T11:25:28.471Z,4.30
2023-03-07T11:26:29.945Z,4.30
2023-03-07T11:27:28.375Z,4.28
2023-03-07T11:28:28.332Z,4.24
2023-03-07T11:29:28.347Z,4.24
2023-03-07T11:30:28.256Z,4.23
2023-03-07T11:31:28.321Z,4.22
2023-03-07T11:32:28.519Z,4.22
2023-03-07T11:33:28.522Z,4.23
2023-03-07T11:34:28.351Z,4.20
2023-03-07T11:35:28.209Z,4.22
2023-03-07T11:36:28.169Z,4.22
2023-03-07T11:37:28.317Z,4.23
2023-03-07T11:38:28.126Z,4.20
2023-03-07T11:39:28.128Z,4.23
2023-03-07T11:40:28.122Z,4.22
2023-03-07T11:41:28.097Z,4.23
2023-03-07T11:42:28.366Z,4.24
2023-03-07T11:43:28.074Z,4.24
2023-03-07T11:44:28.038Z,4.24
2023-03-07T11:45:28.105Z,4.26
2023-03-07T11:46:28.115Z,4.28
2023-03-07T11:47:28.080Z,4.30
2023-03-07T11:48:28.218Z,4.30
2023-03-07T11:49:28.010Z,4.30
2023-03-07T11:50:28.078Z,4.31
2023-03-07T11:51:28.027Z,4.31
2023-03-07T11:52:27.986Z,4.32
2023-03-07T11:53:28.005Z,4.35
2023-03-07T11:54:27.925Z,4.35
2023-03-07T11:55:27.928Z,4.37
2023-03-07T11:56:28.072Z,4.37
2023-03-07T11:57:27.900Z,4.38
2023-03-07T11:58:27.879Z,4.38
2023-03-07T11:59:27.860Z,4.40
2023-03-07T12:00:27.859Z,4.40
2023-03-07T12:01:27.852Z,4.38
2023-03-07T12:02:27.964Z,4.40
2023-03-07T12:03:27.817Z,4.41
2023-03-07T12:04:27.804Z,4.41
2023-03-07T12:05:27.819Z,4.45
2023-03-07T12:06:27.872Z,4.44
2023-03-07T12:07:27.798Z,4.44
2023-03-07T12:08:27.755Z,4.45
2023-03-07T12:09:27.897Z,4.44
2023-03-07T12:10:27.868Z,4.48
2023-03-07T12:11:27.777Z,4.48
2023-03-07T12:12:27.839Z,4.49
2023-03-07T12:13:27.699Z,4.49
2023-03-07T12:14:27.685Z,4.48
2023-03-07T12:15:27.679Z,4.49
2023-03-07T12:16:27.735Z,4.49
2023-03-07T12:17:27.738Z,4.49
2023-03-07T12:18:27.670Z,4.50
2023-03-07T12:19:27.631Z,4.52
2023-03-07T12:20:27.592Z,4.53
2023-03-07T12:21:27.592Z,4.52
2023-03-07T12:22:27.592Z,4.53
2023-03-07T12:23:27.629Z,4.56
2023-03-07T12:24:27.611Z,4.55
2023-03-07T12:25:27.578Z,4.58
2023-03-07T12:26:27.524Z,4.59
2023-03-07T12:27:27.570Z,4.58
2023-03-07T12:28:27.568Z,4.60
2023-03-07T12:29:27.567Z,4.66
2023-03-07T12:30:27.478Z,4.66
2023-03-07T12:31:27.497Z,4.63
2023-03-07T12:32:27.753Z,4.67
2023-03-07T12:33:27.771Z,4.66
2023-03-07T12:34:27.438Z,4.67
2023-03-07T12:35:27.502Z,4.68
2023-03-07T12:36:27.426Z,4.71
2023-03-07T12:37:27.394Z,4.71
2023-03-07T12:38:27.389Z,4.71
2023-03-07T12:39:27.377Z,4.71
2023-03-07T12:40:27.387Z,4.71
2023-03-07T12:41:27.332Z,4.71
2023-03-07T12:42:27.361Z,4.70
2023-03-07T12:43:27.359Z,4.71
2023-03-07T12:44:27.306Z,4.71
2023-03-07T12:45:27.548Z,4.73
2023-03-07T12:46:27.357Z,4.73
2023-03-07T12:47:27.297Z,4.74
2023-03-07T12:48:27.336Z,4.75
2023-03-07T12:49:27.289Z,4.74
2023-03-07T12:50:27.215Z,4.74
2023-03-07T12:51:27.248Z,4.74
2023-03-07T12:52:27.292Z,4.74
2023-03-07T12:53:27.281Z,4.73
2023-03-07T12:54:27.221Z,4.73
2023-03-07T12:55:27.255Z,4.71
2023-03-07T12:56:27.275Z,4.71
2023-03-07T12:57:27.192Z,4.71
2023-03-07T12:58:27.250Z,4.71
2023-03-07T12:59:27.234Z,4.71
2023-03-07T13:00:27.248Z,4.71
2023-03-07T13:01:27.314Z,4.71
2023-03-07T13:02:27.204Z,4.71
2023-03-07T13:03:27.137Z,4.73
2023-03-07T13:04:27.101Z,4.73
2023-03-07T13:05:27.171Z,4.73
2023-03-07T13:06:27.047Z,4.73
2023-03-07T13:07:27.075Z,4.73
2023-03-07T13:08:27.035Z,4.73
2023-03-07T13:09:27.085Z,4.75
2023-03-07T13:10:26.989Z,4.74
2023-03-07T13:11:27.112Z,4.75
2023-03-07T13:12:26.968Z,4.75
2023-03-07T13:13:27.342Z,4.75
2023-03-07T13:14:26.934Z,4.77
2023-03-07T13:15:26.919Z,4.80
2023-03-07T13:16:27.026Z,4.82
2023-03-07T13:17:27.091Z,4.82
2023-03-07T13:18:26.927Z,4.82
2023-03-07T13:19:26.919Z,4.84